createdAt,value
2022-08-04T00:00:48.020Z,20.30
2022-08-04T00:01:48.076Z,20.32
2022-08-04T00:02:47.988Z,20.32
2022-08-04T00:03:47.977Z,20.33
2022-08-04T00:04:47.968Z,20.21
2022-08-04T00:05:47.955Z,20.33
2022-08-04T00:06:47.947Z,20.33
2022-08-04T00:07:47.931Z,20.21
2022-08-04T00:08:47.917Z,20.32
2022-08-04T00:09:47.924Z,20.18
2022-08-04T00:10:47.898Z,20.17
2022-08-04T00:11:47.888Z,20.27
2022-08-04T00:12:47.873Z,20.29
2022-08-04T00:14:02.639Z,20.27
2022-08-04T00:14:47.853Z,20.19
2022-08-04T00:15:47.842Z,20.21
2022-08-04T00:16:47.829Z,20.21
2022-08-04T00:17:47.826Z,20.18
2022-08-04T00:18:47.805Z,20.19
2022-08-04T00:19:47.796Z,20.30
2022-08-04T00:20:47.787Z,20.24
2022-08-04T00:21:47.773Z,20.29
2022-08-04T00:22:47.761Z,20.15
2022-08-04T00:24:10.480Z,20.14
2022-08-04T00:24:47.735Z,20.19
2022-08-04T00:25:47.727Z,20.15
2022-08-04T00:26:47.713Z,20.21
2022-08-04T00:27:47.705Z,20.04
2022-08-04T00:28:47.691Z,20.10
2022-08-04T00:29:47.680Z,20.04
2022-08-04T00:30:47.671Z,20.08
2022-08-04T00:31:56.523Z,20.04
2022-08-04T00:32:47.643Z,20.08
2022-08-04T00:33:47.635Z,20.07
2022-08-04T00:34:47.625Z,20.15
2022-08-04T00:35:47.615Z,20.02
2022-08-04T00:36:47.599Z,20.03
2022-08-04T00:37:47.590Z,20.03
2022-08-04T00:38:47.579Z,20.00
2022-08-04T00:39:47.566Z,19.96
2022-08-04T00:40:47.554Z,20.02
2022-08-04T00:41:57.067Z,19.90
2022-08-04T00:42:58.452Z,19.93
2022-08-04T00:43:47.520Z,19.89
2022-08-04T00:44:47.509Z,19.84
2022-08-04T00:46:10.494Z,19.82
2022-08-04T00:46:47.486Z,19.82
2022-08-04T00:47:47.474Z,19.85
2022-08-04T00:48:47.463Z,19.85
2022-08-04T00:49:47.451Z,19.82
2022-08-04T00:50:47.436Z,19.89
2022-08-04T00:51:47.428Z,19.85
2022-08-04T00:52:47.413Z,19.84
2022-08-04T00:53:49.675Z,19.85
2022-08-04T00:54:47.392Z,19.81
2022-08-04T00:55:47.386Z,19.79
2022-08-04T00:56:47.368Z,19.74
2022-08-04T00:57:47.355Z,19.77
2022-08-04T00:58:47.347Z,19.72
2022-08-04T00:59:47.334Z,19.67
2022-08-04T01:00:47.322Z,19.63
2022-08-04T01:01:47.357Z,19.62
2022-08-04T01:02:47.298Z,19.63
2022-08-04T01:03:47.287Z,19.66
2022-08-04T01:04:47.275Z,19.66
2022-08-04T01:05:47.267Z,19.62
2022-08-04T01:06:56.016Z,19.67
2022-08-04T01:07:47.242Z,19.60
2022-08-04T01:08:47.229Z,19.59
2022-08-04T01:09:47.218Z,19.59
2022-08-04T01:10:47.211Z,19.57
2022-08-04T01:11:56.778Z,19.57
2022-08-04T01:12:47.182Z,19.56
2022-08-04T01:13:47.177Z,19.57
2022-08-04T01:14:47.156Z,19.57
2022-08-04T01:15:56.547Z,19.62
2022-08-04T01:16:47.140Z,19.59
2022-08-04T01:17:47.125Z,19.60
2022-08-04T01:18:47.112Z,19.57
2022-08-04T01:19:47.101Z,19.59
2022-08-04T01:20:47.088Z,19.70
2022-08-04T01:21:47.076Z,19.59
2022-08-04T01:22:47.062Z,19.62
2022-08-04T01:23:47.051Z,19.59
2022-08-04T01:24:47.040Z,19.57
2022-08-04T01:25:47.027Z,19.66
2022-08-04T01:26:57.414Z,19.62
2022-08-04T01:27:47.007Z,19.60
2022-08-04T01:28:46.994Z,19.60
2022-08-04T01:29:48.833Z,19.56
2022-08-04T01:30:46.971Z,19.59
2022-08-04T01:31:46.961Z,19.59
2022-08-04T01:32:46.948Z,19.62
2022-08-04T01:34:04.117Z,19.60
2022-08-04T01:34:46.923Z,19.62
2022-08-04T01:35:48.376Z,19.59
2022-08-04T01:36:50.083Z,19.59
2022-08-04T01:37:46.886Z,19.56
2022-08-04T01:38:46.876Z,19.71
2022-08-04T01:39:46.865Z,19.64
2022-08-04T01:40:46.852Z,19.66
2022-08-04T01:41:57.680Z,19.57
2022-08-04T01:42:46.830Z,19.67
2022-08-04T01:43:46.816Z,19.67
2022-08-04T01:44:46.806Z,19.63
2022-08-04T01:45:46.792Z,19.67
2022-08-04T01:46:46.782Z,19.75
2022-08-04T01:47:46.767Z,19.74
2022-08-04T01:48:46.757Z,19.78
2022-08-04T01:49:46.745Z,19.77
2022-08-04T01:50:46.735Z,19.78
2022-08-04T01:51:46.724Z,19.78
2022-08-04T01:52:50.919Z,19.84
2022-08-04T01:53:46.698Z,19.81
2022-08-04T01:54:46.687Z,19.87
2022-08-04T01:55:55.065Z,19.82
2022-08-04T01:56:46.663Z,19.89
2022-08-04T01:57:46.799Z,19.96
2022-08-04T01:58:46.658Z,19.97
2022-08-04T01:59:46.626Z,19.99
2022-08-04T02:00:46.616Z,19.93
2022-08-04T02:01:46.765Z,19.93
2022-08-04T02:02:46.715Z,20.03
2022-08-04T02:04:22.257Z,20.02
2022-08-04T02:04:46.570Z,20.00
2022-08-04T02:06:03.325Z,20.08
2022-08-04T02:06:46.548Z,20.02
2022-08-04T02:07:46.538Z,19.96
2022-08-04T02:08:46.521Z,20.02
2022-08-04T02:09:54.390Z,20.07
2022-08-04T02:10:46.498Z,20.11
2022-08-04T02:11:46.487Z,20.02
2022-08-04T02:12:46.476Z,20.10
2022-08-04T02:13:46.463Z,20.08
2022-08-04T02:14:46.468Z,20.03
2022-08-04T02:15:46.445Z,20.08
2022-08-04T02:16:46.431Z,20.07
2022-08-04T02:17:46.415Z,20.03
2022-08-04T02:18:46.405Z,19.97
2022-08-04T02:19:46.395Z,20.02
2022-08-04T02:20:46.382Z,20.07
2022-08-04T02:21:46.373Z,19.94
2022-08-04T02:22:46.359Z,19.97
2022-08-04T02:23:46.352Z,19.93
2022-08-04T02:24:46.335Z,19.89
2022-08-04T02:25:46.323Z,19.89
2022-08-04T02:26:46.314Z,19.97
2022-08-04T02:28:00.384Z,19.90
2022-08-04T02:28:46.287Z,19.82
2022-08-04T02:29:46.278Z,19.84
2022-08-04T02:30:46.264Z,19.84
2022-08-04T02:31:46.259Z,19.90
2022-08-04T02:32:46.240Z,19.78
2022-08-04T02:33:46.230Z,19.75
2022-08-04T02:34:46.224Z,19.78
2022-08-04T02:35:46.236Z,19.79
2022-08-04T02:36:46.215Z,19.79
2022-08-04T02:37:46.185Z,19.77
2022-08-04T02:38:46.175Z,19.78
2022-08-04T02:39:48.693Z,19.75
2022-08-04T02:40:46.148Z,19.71
2022-08-04T02:41:46.140Z,19.78
2022-08-04T02:42:46.125Z,19.79
2022-08-04T02:43:52.183Z,19.74
2022-08-04T02:44:46.101Z,19.79
2022-08-04T02:45:46.093Z,19.82
2022-08-04T02:46:46.083Z,19.81
2022-08-04T02:48:28.732Z,19.92
2022-08-04T02:48:46.056Z,19.78
2022-08-04T02:49:46.045Z,19.77
2022-08-04T02:50:46.049Z,19.74
2022-08-04T02:51:46.031Z,19.78
2022-08-04T02:52:46.009Z,19.77
2022-08-04T02:53:46.004Z,19.81
2022-08-04T02:54:45.986Z,19.85
2022-08-04T02:55:50.962Z,19.82
2022-08-04T02:56:45.961Z,19.89
2022-08-04T02:57:45.952Z,20.02
2022-08-04T02:58:45.936Z,19.97
2022-08-04T02:59:45.954Z,19.97
2022-08-04T03:00:45.975Z,19.97
2022-08-04T03:01:57.374Z,19.97
2022-08-04T03:02:45.896Z,19.96
2022-08-04T03:03:45.881Z,19.99
2022-08-04T03:04:45.872Z,19.99
2022-08-04T03:06:00.610Z,19.94
2022-08-04T03:06:45.845Z,20.00
2022-08-04T03:07:45.835Z,19.96
2022-08-04T03:08:45.822Z,19.90
2022-08-04T03:09:45.807Z,19.87
2022-08-04T03:10:46.922Z,19.90
2022-08-04T03:11:45.785Z,19.90
2022-08-04T03:12:45.775Z,19.87
2022-08-04T03:13:45.764Z,19.85
2022-08-04T03:14:45.751Z,19.78
2022-08-04T03:15:45.741Z,19.72
2022-08-04T03:16:45.723Z,19.66
2022-08-04T03:17:52.614Z,19.64
2022-08-04T03:18:45.702Z,19.59
2022-08-04T03:19:45.693Z,19.57
2022-08-04T03:20:45.680Z,19.60
2022-08-04T03:21:45.669Z,19.55
2022-08-04T03:23:11.678Z,19.56
2022-08-04T03:23:45.650Z,19.60
2022-08-04T03:24:45.632Z,19.57
2022-08-04T03:25:56.779Z,19.49
2022-08-04T03:26:45.610Z,19.45
2022-08-04T03:27:45.598Z,19.56
2022-08-04T03:28:45.582Z,19.39
2022-08-04T03:29:45.578Z,19.38
2022-08-04T03:30:45.563Z,19.44
2022-08-04T03:31:45.553Z,19.39
2022-08-04T03:32:45.537Z,19.34
2022-08-04T03:33:45.525Z,19.37
2022-08-04T03:34:45.513Z,19.37
2022-08-04T03:35:45.502Z,19.30
2022-08-04T03:36:45.491Z,19.26
2022-08-04T03:37:45.479Z,19.29
2022-08-04T03:38:55.001Z,19.30
2022-08-04T03:39:45.473Z,19.26
2022-08-04T03:40:45.441Z,19.34
2022-08-04T03:41:51.867Z,19.23
2022-08-04T03:42:45.419Z,19.30
2022-08-04T03:43:57.481Z,19.23
2022-08-04T03:44:45.392Z,19.29
2022-08-04T03:45:45.381Z,19.20
2022-08-04T03:46:45.372Z,19.32
2022-08-04T03:47:45.361Z,19.23
2022-08-04T03:48:45.349Z,19.22
2022-08-04T03:49:45.340Z,19.20
2022-08-04T03:50:45.325Z,19.23
2022-08-04T03:51:45.309Z,19.15
2022-08-04T03:52:47.216Z,19.24
2022-08-04T03:53:45.288Z,19.15
2022-08-04T03:54:45.283Z,19.12
2022-08-04T03:55:45.262Z,19.11
2022-08-04T03:56:45.252Z,19.08
2022-08-04T03:57:45.240Z,19.09
2022-08-04T03:58:45.228Z,19.12
2022-08-04T03:59:48.718Z,19.08
2022-08-04T04:00:45.217Z,19.08
2022-08-04T04:02:02.271Z,19.12
2022-08-04T04:02:45.250Z,19.11
2022-08-04T04:03:45.169Z,19.00
2022-08-04T04:04:45.157Z,19.11
2022-08-04T04:05:58.839Z,19.01
2022-08-04T04:06:47.350Z,19.05
2022-08-04T04:07:45.120Z,19.05
2022-08-04T04:08:45.304Z,19.00
2022-08-04T04:09:57.611Z,19.07
2022-08-04T04:10:45.086Z,19.07
2022-08-04T04:11:56.360Z,19.05
2022-08-04T04:12:45.060Z,19.00
2022-08-04T04:13:45.048Z,18.98
2022-08-04T04:14:45.034Z,18.98
2022-08-04T04:15:49.796Z,19.00
2022-08-04T04:16:45.010Z,19.09
2022-08-04T04:17:44.999Z,19.09
2022-08-04T04:18:45.499Z,18.98
2022-08-04T04:19:44.977Z,19.05
2022-08-04T04:20:44.965Z,19.11
2022-08-04T04:21:44.953Z,19.08
2022-08-04T04:22:44.942Z,19.09
2022-08-04T04:23:44.928Z,19.01
2022-08-04T04:24:44.938Z,19.08
2022-08-04T04:25:44.905Z,19.09
2022-08-04T04:26:44.892Z,19.08
2022-08-04T04:27:44.883Z,19.08
2022-08-04T04:28:46.998Z,19.09
2022-08-04T04:29:44.865Z,19.11
2022-08-04T04:30:44.843Z,19.11
2022-08-04T04:31:44.830Z,19.09
2022-08-04T04:32:44.816Z,19.15
2022-08-04T04:33:44.808Z,19.15
2022-08-04T04:34:46.392Z,19.08
2022-08-04T04:35:44.783Z,19.08
2022-08-04T04:36:44.772Z,19.17
2022-08-04T04:37:48.761Z,19.20
2022-08-04T04:38:44.745Z,19.12
2022-08-04T04:39:44.750Z,19.12
2022-08-04T04:40:44.724Z,19.09
2022-08-04T04:41:44.709Z,19.24
2022-08-04T04:42:44.699Z,19.15
2022-08-04T04:43:51.659Z,19.16
2022-08-04T04:44:44.674Z,19.19
2022-08-04T04:45:44.665Z,19.20
2022-08-04T04:46:44.654Z,19.17
2022-08-04T04:48:08.582Z,19.17
2022-08-04T04:48:44.628Z,19.20
2022-08-04T04:49:44.617Z,19.22
2022-08-04T04:50:44.603Z,19.27
2022-08-04T04:51:44.594Z,19.19
2022-08-04T04:52:44.578Z,19.20
2022-08-04T04:53:44.566Z,19.23
2022-08-04T04:54:44.554Z,19.29
2022-08-04T04:55:48.088Z,19.26
2022-08-04T04:56:44.528Z,19.20
2022-08-04T04:57:53.810Z,19.29
2022-08-04T04:58:44.506Z,19.19
2022-08-04T04:59:44.495Z,19.22
2022-08-04T05:00:44.486Z,19.27
2022-08-04T05:01:44.475Z,19.23
2022-08-04T05:02:44.461Z,19.29
2022-08-04T05:03:44.443Z,19.35
2022-08-04T05:04:44.435Z,19.35
2022-08-04T05:05:44.422Z,19.32
2022-08-04T05:06:44.411Z,19.34
2022-08-04T05:07:44.395Z,19.41
2022-08-04T05:08:47.427Z,19.41
2022-08-04T05:09:44.375Z,19.39
2022-08-04T05:10:44.363Z,19.55
2022-08-04T05:11:44.351Z,19.52
2022-08-04T05:14:31.249Z,19.62
2022-08-04T05:14:38.769Z,19.49
2022-08-04T05:14:44.315Z,19.60
2022-08-04T05:15:44.299Z,19.66
2022-08-04T05:16:44.289Z,19.63
2022-08-04T05:17:44.277Z,19.67
2022-08-04T05:18:44.268Z,19.77
2022-08-04T05:19:44.252Z,19.81
2022-08-04T05:20:44.240Z,19.84
2022-08-04T05:21:44.233Z,19.90
2022-08-04T05:22:44.220Z,19.99
2022-08-04T05:23:44.211Z,20.04
2022-08-04T05:24:44.197Z,20.14
2022-08-04T05:25:58.694Z,20.19
2022-08-04T05:26:44.173Z,20.32
2022-08-04T05:27:44.158Z,20.32
2022-08-04T05:28:44.150Z,20.48
2022-08-04T05:29:44.136Z,20.46
2022-08-04T05:30:44.126Z,20.66
2022-08-04T05:31:44.118Z,20.66
2022-08-04T05:32:44.099Z,20.75
2022-08-04T05:33:44.089Z,20.80
2022-08-04T05:34:44.078Z,20.83
2022-08-04T05:36:18.701Z,20.96
2022-08-04T05:36:44.054Z,21.04
2022-08-04T05:37:44.054Z,21.05
2022-08-04T05:38:44.032Z,21.15
2022-08-04T05:39:46.258Z,21.28
2022-08-04T05:40:44.010Z,21.33
2022-08-04T05:41:45.502Z,21.45
2022-08-04T05:42:43.987Z,21.51
2022-08-04T05:43:43.976Z,21.66
2022-08-04T05:44:48.887Z,21.63
2022-08-04T05:45:43.952Z,21.72
2022-08-04T05:46:43.947Z,21.81
2022-08-04T05:47:43.928Z,21.99
2022-08-04T05:48:43.919Z,22.03
2022-08-04T05:49:43.910Z,22.07
2022-08-04T05:50:43.895Z,22.22
2022-08-04T05:51:43.886Z,22.25
2022-08-04T05:52:43.875Z,22.28
2022-08-04T05:53:43.865Z,22.46
2022-08-04T05:54:43.857Z,22.46
2022-08-04T05:55:56.778Z,22.56
2022-08-04T05:56:43.833Z,22.68
2022-08-04T05:57:43.823Z,22.80
2022-08-04T05:58:43.812Z,22.92
2022-08-04T05:59:43.800Z,22.96
2022-08-04T06:00:52.388Z,22.98
2022-08-04T06:01:56.607Z,23.11
2022-08-04T06:02:43.771Z,23.23
2022-08-04T06:03:43.759Z,23.39
2022-08-04T06:04:43.747Z,23.47
2022-08-04T06:05:43.736Z,23.51
2022-08-04T06:06:43.726Z,23.54
2022-08-04T06:08:11.948Z,23.71
2022-08-04T06:08:43.705Z,23.67
2022-08-04T06:09:43.701Z,23.76
2022-08-04T06:10:43.689Z,23.89
2022-08-04T06:12:00.740Z,23.89
2022-08-04T06:12:43.668Z,24.03
2022-08-04T06:13:49.648Z,24.14
2022-08-04T06:14:43.646Z,24.18
2022-08-04T06:15:44.507Z,24.36
2022-08-04T06:16:46.038Z,24.47
2022-08-04T06:18:32.880Z,24.51
2022-08-04T06:20:00.116Z,24.69
2022-08-04T06:20:03.221Z,24.69
2022-08-04T06:20:50.032Z,24.92
2022-08-04T06:21:43.581Z,24.96
2022-08-04T06:22:43.573Z,25.11
2022-08-04T06:23:52.960Z,25.11
2022-08-04T06:24:43.551Z,25.18
2022-08-04T06:25:43.546Z,25.24
2022-08-04T06:26:43.530Z,25.34
2022-08-04T06:27:43.527Z,25.41
2022-08-04T06:28:43.513Z,25.41
2022-08-04T06:29:50.699Z,25.46
2022-08-04T06:30:43.497Z,25.51
2022-08-04T06:32:28.386Z,25.46
2022-08-04T06:32:43.481Z,25.51
2022-08-04T06:33:54.553Z,25.59
2022-08-04T06:34:43.462Z,25.52
2022-08-04T06:35:43.453Z,25.67
2022-08-04T06:36:43.464Z,25.73
2022-08-04T06:37:44.509Z,25.88
2022-08-04T06:38:43.428Z,25.93
2022-08-04T06:39:43.484Z,25.98
2022-08-04T06:40:43.410Z,26.03
2022-08-04T06:42:17.509Z,26.11
2022-08-04T06:42:43.394Z,26.31
2022-08-04T06:43:44.082Z,26.42
2022-08-04T06:44:43.375Z,26.60
2022-08-04T06:45:43.366Z,26.55
2022-08-04T06:46:43.360Z,26.70
2022-08-04T06:47:43.353Z,26.86
2022-08-04T06:48:43.339Z,26.89
2022-08-04T06:51:22.931Z,27.00
2022-08-04T06:51:27.260Z,27.20
2022-08-04T06:51:49.208Z,27.26
2022-08-04T06:52:43.312Z,27.35
2022-08-04T06:53:43.302Z,27.45
2022-08-04T06:54:43.291Z,27.53
2022-08-04T06:55:43.285Z,27.67
2022-08-04T06:56:43.281Z,27.73
2022-08-04T06:57:43.272Z,27.79
2022-08-04T06:58:43.289Z,27.86
2022-08-04T06:59:43.253Z,27.98
2022-08-04T07:00:43.251Z,28.03
2022-08-04T07:01:43.265Z,28.12
2022-08-04T07:02:43.234Z,28.20
2022-08-04T07:03:43.237Z,28.34
2022-08-04T07:04:43.217Z,28.47
2022-08-04T07:05:43.205Z,28.50
2022-08-04T07:06:43.206Z,28.57
2022-08-04T07:07:56.906Z,28.65
2022-08-04T07:08:43.188Z,28.74
2022-08-04T07:09:43.181Z,28.78
2022-08-04T07:10:43.174Z,28.89
2022-08-04T07:11:44.696Z,29.09
2022-08-04T07:12:43.163Z,29.03
2022-08-04T07:13:45.233Z,29.13
2022-08-04T07:14:43.150Z,29.20
2022-08-04T07:15:43.141Z,29.27
2022-08-04T07:16:43.139Z,29.28
2022-08-04T07:17:43.125Z,29.37
2022-08-04T07:18:43.126Z,29.39
2022-08-04T07:19:43.117Z,29.57
2022-08-04T07:20:43.108Z,29.64
2022-08-04T07:22:16.394Z,29.69
2022-08-04T07:22:43.124Z,29.77
2022-08-04T07:23:43.089Z,29.86
2022-08-04T07:24:43.085Z,29.86
2022-08-04T07:25:58.800Z,29.98
2022-08-04T07:26:43.076Z,30.03
2022-08-04T07:27:47.741Z,30.11
2022-08-04T07:28:43.064Z,30.23
2022-08-04T07:29:43.059Z,30.31
2022-08-04T07:30:43.049Z,30.43
2022-08-04T07:31:43.044Z,30.52
2022-08-04T07:32:43.039Z,30.69
2022-08-04T07:33:43.034Z,30.73
2022-08-04T07:34:43.028Z,30.78
2022-08-04T07:36:04.953Z,30.86
2022-08-04T07:36:50.983Z,30.93
2022-08-04T07:37:43.016Z,30.88
2022-08-04T07:38:46.377Z,30.98
2022-08-04T07:39:47.686Z,31.04
2022-08-04T07:40:43.001Z,31.08
2022-08-04T07:41:46.138Z,31.20
2022-08-04T07:42:42.993Z,31.29
2022-08-04T07:43:42.986Z,31.33
2022-08-04T07:44:43.026Z,31.44
2022-08-04T07:45:42.971Z,31.47
2022-08-04T07:46:42.970Z,31.62
2022-08-04T07:48:05.198Z,31.73
2022-08-04T07:48:42.958Z,31.78
2022-08-04T07:49:55.553Z,31.97
2022-08-04T07:50:42.952Z,32.07
2022-08-04T07:51:42.950Z,32.15
2022-08-04T07:52:42.947Z,32.31
2022-08-04T07:53:54.291Z,32.51
2022-08-04T07:54:42.945Z,32.57
2022-08-04T07:55:42.931Z,32.66
2022-08-04T07:56:42.925Z,32.81
2022-08-04T07:57:43.348Z,32.94
2022-08-04T07:58:42.921Z,33.01
2022-08-04T07:59:45.901Z,33.23
2022-08-04T08:00:42.915Z,33.31
2022-08-04T08:01:42.911Z,33.40
2022-08-04T08:02:42.908Z,33.51
2022-08-04T08:03:42.966Z,33.58
2022-08-04T08:04:42.902Z,33.72
2022-08-04T08:06:16.595Z,33.77
2022-08-04T08:06:43.415Z,33.82
2022-08-04T08:07:50.481Z,33.84
2022-08-04T08:08:42.887Z,33.92
2022-08-04T08:09:42.888Z,33.98
2022-08-04T08:10:42.885Z,34.06
2022-08-04T08:12:36.765Z,34.06
2022-08-04T08:12:51.517Z,34.33
2022-08-04T08:13:42.877Z,34.33
2022-08-04T08:14:42.876Z,34.41
2022-08-04T08:15:42.872Z,34.43
2022-08-04T08:16:42.873Z,34.50
2022-08-04T08:17:58.432Z,34.73
2022-08-04T08:18:46.800Z,34.96
2022-08-04T08:19:42.864Z,35.08
2022-08-04T08:20:42.861Z,35.27
2022-08-04T08:21:58.491Z,35.30
2022-08-04T08:22:42.866Z,35.44
2022-08-04T08:23:42.857Z,35.50
2022-08-04T08:24:42.857Z,35.54
2022-08-04T08:25:42.854Z,35.59
2022-08-04T08:26:42.853Z,35.63
2022-08-04T08:27:55.718Z,35.71
2022-08-04T08:28:42.853Z,35.78
2022-08-04T08:29:42.851Z,35.81
2022-08-04T08:30:42.849Z,35.81
2022-08-04T08:31:56.408Z,35.76
2022-08-04T08:32:42.848Z,35.75
2022-08-04T08:33:42.846Z,35.63
2022-08-04T08:34:42.843Z,35.74
2022-08-04T08:35:51.139Z,36.06
2022-08-04T08:36:42.845Z,36.17
2022-08-04T08:37:42.842Z,36.41
2022-08-04T08:38:42.840Z,36.70
2022-08-04T08:39:42.879Z,36.92
2022-08-04T08:40:42.842Z,37.19
2022-08-04T08:41:42.841Z,37.25
2022-08-04T08:42:42.839Z,37.19
2022-08-04T08:44:05.404Z,37.23
2022-08-04T08:44:42.837Z,37.21
2022-08-04T08:45:42.837Z,37.10
2022-08-04T08:46:49.747Z,37.07
2022-08-04T08:47:58.492Z,37.01
2022-08-04T08:48:42.839Z,37.29
2022-08-04T08:50:02.745Z,37.48
2022-08-04T08:50:42.839Z,37.73
2022-08-04T08:51:47.404Z,37.97
2022-08-04T08:53:00.877Z,38.13
2022-08-04T08:53:42.840Z,38.36
2022-08-04T08:54:42.837Z,38.58
2022-08-04T08:55:42.837Z,38.82
2022-08-04T08:56:42.846Z,39.00
2022-08-04T08:57:59.611Z,39.07
2022-08-04T08:58:42.837Z,39.03
2022-08-04T08:59:42.840Z,38.81
2022-08-04T09:00:42.838Z,38.82
2022-08-04T09:01:42.869Z,38.70
2022-08-04T09:02:42.840Z,38.68
2022-08-04T09:03:42.844Z,38.76
2022-08-04T09:04:42.842Z,39.03
2022-08-04T09:05:42.842Z,39.12
2022-08-04T09:06:42.842Z,39.14
2022-08-04T09:07:42.841Z,39.20
2022-08-04T09:08:42.842Z,39.34
2022-08-04T09:09:42.847Z,39.32
2022-08-04T09:10:42.845Z,39.48
2022-08-04T09:11:42.847Z,39.59
2022-08-04T09:12:42.843Z,39.80
2022-08-04T09:13:42.848Z,39.97
2022-08-04T09:14:42.853Z,40.07
2022-08-04T09:15:42.851Z,40.17
2022-08-04T09:16:42.847Z,40.10
2022-08-04T09:17:42.853Z,40.10
2022-08-04T09:18:42.855Z,40.10
2022-08-04T09:19:42.859Z,40.01
2022-08-04T09:20:42.872Z,39.78
2022-08-04T09:21:42.858Z,39.60
2022-08-04T09:22:42.858Z,39.52
2022-08-04T09:23:42.864Z,39.39
2022-08-04T09:24:42.865Z,39.42
2022-08-04T09:25:42.866Z,39.42
2022-08-04T09:26:42.862Z,39.34
2022-08-04T09:27:42.866Z,39.37
2022-08-04T09:28:55.772Z,39.49
2022-08-04T09:29:42.867Z,39.57
2022-08-04T09:30:42.879Z,39.63
2022-08-04T09:31:53.012Z,39.83
2022-08-04T09:32:42.868Z,40.19
2022-08-04T09:33:45.712Z,40.34
2022-08-04T09:34:42.872Z,40.61
2022-08-04T09:35:42.877Z,40.74
2022-08-04T09:36:42.877Z,40.73
2022-08-04T09:37:46.127Z,40.88
2022-08-04T09:38:42.878Z,41.18
2022-08-04T09:39:44.546Z,41.57
2022-08-04T09:40:53.845Z,41.88
2022-08-04T09:41:49.574Z,42.29
2022-08-04T09:42:42.883Z,42.32
2022-08-04T09:43:59.047Z,42.44
2022-08-04T09:44:52.613Z,42.56
2022-08-04T09:45:44.286Z,42.74
2022-08-04T09:46:42.890Z,42.89
2022-08-04T09:47:42.894Z,43.11
2022-08-04T09:48:42.900Z,43.05
2022-08-04T09:49:42.905Z,42.97
2022-08-04T09:50:46.916Z,42.80
2022-08-04T09:51:57.764Z,42.73
2022-08-04T09:52:42.902Z,42.55
2022-08-04T09:53:42.905Z,42.52
2022-08-04T09:54:42.908Z,42.53
2022-08-04T09:55:54.604Z,42.41
2022-08-04T09:56:42.914Z,42.49
2022-08-04T09:57:42.920Z,42.53
2022-08-04T09:58:42.920Z,42.71
2022-08-04T09:59:42.923Z,42.56
2022-08-04T10:00:42.927Z,42.55
2022-08-04T10:01:42.951Z,42.75
2022-08-04T10:02:43.006Z,42.97
2022-08-04T10:03:42.936Z,43.07
2022-08-04T10:04:42.935Z,43.22
2022-08-04T10:05:42.934Z,43.41
2022-08-04T10:06:42.937Z,43.54
2022-08-04T10:07:42.939Z,43.85
2022-08-04T10:08:42.944Z,43.80
2022-08-04T10:09:42.946Z,43.61
2022-08-04T10:10:42.947Z,43.51
2022-08-04T10:11:56.232Z,43.44
2022-08-04T10:12:42.954Z,43.44
2022-08-04T10:13:42.962Z,43.38
2022-08-04T10:14:42.957Z,43.51
2022-08-04T10:15:42.964Z,43.70
2022-08-04T10:16:42.965Z,44.06
2022-08-04T10:17:43.639Z,44.23
2022-08-04T10:18:42.970Z,44.64
2022-08-04T10:19:42.973Z,44.87
2022-08-04T10:20:46.495Z,44.91
2022-08-04T10:21:59.143Z,44.95
2022-08-04T10:23:02.180Z,45.08
2022-08-04T10:23:55.098Z,45.14
2022-08-04T10:24:42.998Z,45.08
2022-08-04T10:26:05.475Z,45.17
2022-08-04T10:26:42.998Z,45.24
2022-08-04T10:27:43.004Z,45.14
2022-08-04T10:28:43.014Z,45.06
2022-08-04T10:29:43.013Z,45.13
2022-08-04T10:30:43.016Z,45.08
2022-08-04T10:31:43.018Z,45.04
2022-08-04T10:32:43.268Z,44.86
2022-08-04T10:33:43.027Z,44.70
2022-08-04T10:34:43.032Z,44.67
2022-08-04T10:35:43.039Z,44.80
2022-08-04T10:36:43.040Z,44.86
2022-08-04T10:37:58.910Z,44.92
2022-08-04T10:38:43.050Z,45.06
2022-08-04T10:39:44.518Z,45.26
2022-08-04T10:40:43.054Z,45.30
2022-08-04T10:41:43.070Z,45.21
2022-08-04T10:42:43.066Z,45.08
2022-08-04T10:43:43.071Z,44.91
2022-08-04T10:44:43.073Z,44.75
2022-08-04T10:45:43.077Z,44.59
2022-08-04T10:46:43.079Z,44.50
2022-08-04T10:47:43.091Z,44.44
2022-08-04T10:48:45.849Z,44.34
2022-08-04T10:49:43.089Z,44.21
2022-08-04T10:50:43.096Z,44.00
2022-08-04T10:51:57.752Z,43.77
2022-08-04T10:52:43.103Z,43.87
2022-08-04T10:53:43.106Z,43.62
2022-08-04T10:54:43.110Z,43.50
2022-08-04T10:56:05.705Z,43.47
2022-08-04T10:56:43.115Z,43.36
2022-08-04T10:57:43.122Z,43.34
2022-08-04T10:58:48.587Z,43.36
2022-08-04T10:59:43.129Z,43.50
2022-08-04T11:00:43.131Z,43.62
2022-08-04T11:02:02.110Z,43.68
2022-08-04T11:02:43.212Z,43.80
2022-08-04T11:03:43.142Z,43.95
2022-08-04T11:04:43.145Z,44.22
2022-08-04T11:05:43.858Z,44.41
2022-08-04T11:06:43.152Z,44.75
2022-08-04T11:07:43.153Z,44.89
2022-08-04T11:08:43.153Z,45.18
2022-08-04T11:09:43.162Z,45.17
2022-08-04T11:10:43.163Z,45.21
2022-08-04T11:12:01.798Z,45.24
2022-08-04T11:12:43.175Z,45.21
2022-08-04T11:13:46.946Z,45.24
2022-08-04T11:14:43.178Z,45.10
2022-08-04T11:15:43.181Z,45.01
2022-08-04T11:16:43.183Z,45.16
2022-08-04T11:17:43.189Z,45.17
2022-08-04T11:18:43.194Z,45.08
2022-08-04T11:19:46.222Z,45.02
2022-08-04T11:20:43.199Z,45.17
2022-08-04T11:21:43.205Z,45.36
2022-08-04T11:22:43.207Z,45.47
2022-08-04T11:23:43.211Z,45.58
2022-08-04T11:24:43.221Z,45.49
2022-08-04T11:25:43.222Z,45.37
2022-08-04T11:26:43.227Z,45.32
2022-08-04T11:27:43.229Z,45.42
2022-08-04T11:28:43.234Z,45.64
2022-08-04T11:29:43.241Z,45.85
2022-08-04T11:30:43.240Z,46.08
2022-08-04T11:31:44.214Z,46.13
2022-08-04T11:32:43.252Z,46.12
2022-08-04T11:33:43.255Z,46.09
2022-08-04T11:34:43.270Z,46.02
2022-08-04T11:35:52.380Z,46.09
2022-08-04T11:37:52.285Z,45.90
2022-08-04T11:38:52.468Z,46.04
2022-08-04T11:41:02.613Z,46.09
2022-08-04T11:41:59.280Z,46.00
2022-08-04T11:44:10.570Z,46.20
2022-08-04T11:45:06.288Z,46.50
2022-08-04T11:47:02.239Z,47.03
2022-08-04T11:48:02.235Z,47.06
2022-08-04T11:50:09.257Z,46.94
2022-08-04T11:51:09.238Z,46.74
2022-08-04T11:53:23.864Z,46.78
2022-08-04T11:54:23.868Z,46.92
2022-08-04T11:56:36.006Z,47.33
2022-08-04T11:57:35.832Z,47.15
2022-08-04T11:59:39.882Z,46.93
2022-08-04T12:00:39.881Z,46.96
2022-08-04T12:02:49.051Z,46.74
2022-08-04T12:03:59.697Z,46.80
2022-08-04T12:04:48.978Z,46.84
2022-08-04T12:05:48.985Z,46.94
2022-08-04T12:06:50.387Z,47.16
2022-08-04T12:07:49.278Z,47.09
2022-08-04T12:08:48.995Z,47.04
2022-08-04T12:09:49.000Z,46.80
2022-08-04T12:10:49.009Z,46.74
2022-08-04T12:11:49.009Z,46.70
2022-08-04T12:12:49.016Z,46.66
2022-08-04T12:13:49.020Z,46.65
2022-08-04T12:14:49.030Z,46.61
2022-08-04T12:15:49.031Z,46.55
2022-08-04T12:16:49.038Z,46.63
2022-08-04T12:17:52.428Z,46.97
2022-08-04T12:18:49.054Z,47.18
2022-08-04T12:20:03.755Z,47.41
2022-08-04T12:20:49.054Z,47.64
2022-08-04T12:21:53.257Z,47.53
2022-08-04T12:22:49.098Z,47.51
2022-08-04T12:23:49.066Z,47.42
2022-08-04T12:24:49.069Z,47.28
2022-08-04T12:25:49.075Z,47.18
2022-08-04T12:26:49.079Z,47.26
2022-08-04T12:27:49.086Z,47.26
2022-08-04T12:29:19.013Z,47.31
2022-08-04T12:30:57.530Z,47.40
2022-08-04T12:31:00.190Z,47.62
2022-08-04T12:31:49.098Z,48.01
2022-08-04T12:32:53.654Z,48.37
2022-08-04T12:34:04.205Z,48.48
2022-08-04T12:34:49.124Z,48.36
2022-08-04T12:36:10.087Z,48.45
2022-08-04T12:36:49.127Z,48.32
2022-08-04T12:37:49.131Z,48.36
2022-08-04T12:38:49.142Z,48.44
2022-08-04T12:40:21.684Z,48.65
2022-08-04T12:40:49.149Z,48.77
2022-08-04T12:41:49.151Z,48.82
2022-08-04T12:42:56.406Z,48.85
2022-08-04T12:43:49.189Z,48.83
2022-08-04T12:44:49.167Z,48.74
2022-08-04T12:45:49.172Z,48.67
2022-08-04T12:46:49.177Z,48.63
2022-08-04T12:47:49.183Z,48.46
2022-08-04T12:48:49.185Z,48.27
2022-08-04T12:50:00.441Z,48.25
2022-08-04T12:50:49.198Z,48.26
2022-08-04T12:52:07.710Z,48.30
2022-08-04T12:53:04.643Z,48.30
2022-08-04T12:53:51.320Z,48.42
2022-08-04T12:54:49.214Z,48.45
2022-08-04T12:56:01.785Z,48.57
2022-08-04T12:56:49.227Z,48.46
2022-08-04T12:57:49.231Z,48.27
2022-08-04T12:58:49.235Z,48.06
2022-08-04T12:59:57.064Z,48.08
2022-08-04T13:00:49.266Z,47.99
2022-08-04T13:02:09.077Z,47.99
2022-08-04T13:02:49.253Z,48.11